X  Close Metar Aviation Weather Data     EHKD De Kooy Airport
Temperature
59°F Temperature
55°F Dewpoint
88% Humidity



Wind
6 MPH
10 KM/H
3 M/S
5 KTS



10°
N
Current Conditions

Clear Clear
Pressure 1010.84 (hPa) - 29.85 (inHg)
Visibility 6 (mile) - 9.7 (km)
Airport
Airport-code EHKD

Location: De Kooy Airport
Distance: 34 (mi)

Metar:
EHKD 190055Z AUTO 01005KT 320V050 9999 NCD 15/13 Q1011 BLU

Time: 19-05-2024 02:55 CEST